METAR 2014/12/18 :

EPMO 23:30: METAR EPMO 182330Z NIL= EPMO 23:00: METAR EPMO 182300Z 21011KT 6000 -RA SCT008 BKN010 OVC020 08/07 Q1005=

TAF 2014/12/18 :

EPMO 23:00: TAF EPMO 182300Z NIL= EPMO 23:05: TAF AMD EPMO 182305Z 1821/1906 CNL=

Pogoda ogólna dla Polski